createdAt,value
2018-09-30T00:00:18.693Z,57.45
2018-09-30T00:00:50.285Z,57.47
2018-09-30T00:01:21.880Z,58.03
2018-09-30T00:01:53.482Z,57.73
2018-09-30T00:02:25.077Z,57.74
2018-09-30T00:02:56.678Z,57.74
2018-09-30T00:03:28.273Z,57.63
2018-09-30T00:03:59.855Z,57.67
2018-09-30T00:04:31.435Z,57.73
2018-09-30T00:05:03.039Z,57.75
2018-09-30T00:05:34.642Z,57.86
2018-09-30T00:06:06.222Z,57.80
2018-09-30T00:06:38.070Z,57.84
2018-09-30T00:07:09.670Z,57.54
2018-09-30T00:07:41.260Z,57.80
2018-09-30T00:08:12.867Z,57.87
2018-09-30T00:08:44.464Z,57.81
2018-09-30T00:09:16.043Z,57.75
2018-09-30T00:09:47.650Z,57.83
2018-09-30T00:10:19.243Z,57.71
2018-09-30T00:10:50.822Z,57.93
2018-09-30T00:11:22.417Z,57.83
2018-09-30T00:11:53.995Z,57.87
2018-09-30T00:12:25.591Z,57.94
2018-09-30T00:12:57.167Z,57.84
2018-09-30T00:13:28.766Z,57.95
2018-09-30T00:14:00.360Z,57.93
2018-09-30T00:14:31.940Z,57.99
2018-09-30T00:15:03.541Z,57.86
2018-09-30T00:15:35.126Z,57.82
2018-09-30T00:16:06.732Z,57.84
2018-09-30T00:16:38.310Z,57.82
2018-09-30T00:17:09.896Z,57.76
2018-09-30T00:17:41.488Z,57.86
2018-09-30T00:18:13.090Z,57.70
2018-09-30T00:18:44.685Z,57.76
2018-09-30T00:19:16.303Z,57.74
2018-09-30T00:19:47.900Z,58.42
2018-09-30T00:20:19.524Z,57.85
2018-09-30T00:20:51.120Z,57.95
2018-09-30T00:21:22.731Z,58.07
2018-09-30T00:21:54.328Z,57.99
2018-09-30T00:22:25.930Z,57.97
2018-09-30T00:22:57.524Z,57.97
2018-09-30T00:23:29.116Z,57.98
2018-09-30T00:24:00.705Z,57.94
2018-09-30T00:24:47.196Z,58.16
2018-09-30T00:25:24.466Z,58.01
2018-09-30T00:26:10.941Z,58.00
2018-09-30T00:26:57.328Z,57.86
2018-09-30T00:27:28.907Z,57.78
2018-09-30T00:28:00.519Z,57.74
2018-09-30T00:28:32.099Z,57.91
2018-09-30T00:29:03.692Z,57.79
2018-09-30T00:29:35.295Z,57.86
2018-09-30T00:30:07.076Z,57.99
2018-09-30T00:30:38.668Z,57.89
2018-09-30T00:31:10.326Z,57.98
2018-09-30T00:31:41.878Z,58.12
2018-09-30T00:32:13.472Z,58.11
2018-09-30T00:32:45.075Z,58.08
2018-09-30T00:33:16.685Z,58.02
2018-09-30T00:33:48.281Z,57.97
2018-09-30T00:34:19.887Z,58.17
2018-09-30T00:34:51.485Z,58.20
2018-09-30T00:35:23.101Z,58.32
2018-09-30T00:35:54.696Z,58.13
2018-09-30T00:36:26.395Z,58.24
2018-09-30T00:36:57.938Z,58.26
2018-09-30T00:37:29.533Z,58.19
2018-09-30T00:38:01.137Z,58.33
2018-09-30T00:38:32.732Z,57.90
2018-09-30T00:39:04.311Z,57.94
2018-09-30T00:39:35.921Z,58.01
2018-09-30T00:40:07.520Z,58.21
2018-09-30T00:40:39.126Z,58.05
2018-09-30T00:41:10.722Z,57.77
2018-09-30T00:41:42.330Z,57.84
2018-09-30T00:42:13.926Z,57.93
2018-09-30T00:42:45.535Z,57.99
2018-09-30T00:43:17.127Z,57.75
2018-09-30T00:43:48.730Z,57.98
2018-09-30T00:44:20.342Z,58.03
2018-09-30T00:44:51.934Z,58.17
2018-09-30T00:45:23.560Z,57.89
2018-09-30T00:45:55.156Z,57.83
2018-09-30T00:46:26.760Z,58.09
2018-09-30T00:46:58.370Z,58.00
2018-09-30T00:47:29.959Z,57.89
2018-09-30T00:48:01.562Z,57.89
2018-09-30T00:48:33.171Z,57.80
2018-09-30T00:49:04.783Z,58.03
2018-09-30T00:49:36.396Z,57.96
2018-09-30T00:50:07.997Z,58.02
2018-09-30T00:50:39.626Z,58.04
2018-09-30T00:51:11.221Z,57.95
2018-09-30T00:51:42.809Z,58.26
2018-09-30T00:52:14.404Z,57.86
2018-09-30T00:52:46.000Z,57.97
2018-09-30T00:53:17.606Z,57.87
2018-09-30T00:53:49.222Z,58.02
2018-09-30T00:54:20.816Z,57.77
2018-09-30T00:54:52.417Z,57.89
2018-09-30T00:55:24.037Z,57.93
2018-09-30T00:55:55.643Z,57.79
2018-09-30T00:56:27.227Z,57.99
2018-09-30T00:56:58.830Z,57.61
2018-09-30T00:57:30.446Z,57.62
2018-09-30T00:58:02.041Z,57.58
2018-09-30T00:58:33.625Z,58.11
2018-09-30T00:59:05.225Z,57.73
2018-09-30T00:59:36.824Z,57.93
2018-09-30T01:00:08.416Z,58.06
2018-09-30T01:00:40.032Z,58.12
2018-09-30T01:01:11.614Z,58.06
2018-09-30T01:01:43.220Z,58.11
2018-09-30T01:02:14.826Z,58.05
2018-09-30T01:02:46.434Z,58.01
2018-09-30T01:03:18.039Z,57.89
2018-09-30T01:03:49.637Z,57.81
2018-09-30T01:04:21.238Z,58.05
2018-09-30T01:04:52.842Z,58.01
2018-09-30T01:05:24.431Z,58.01
2018-09-30T01:05:56.034Z,58.34
2018-09-30T01:06:27.628Z,58.79
2018-09-30T01:06:59.233Z,58.31
2018-09-30T01:07:30.828Z,58.12
2018-09-30T01:08:02.422Z,58.18
2018-09-30T01:08:34.016Z,58.04
2018-09-30T01:09:05.604Z,57.99
2018-09-30T01:09:37.193Z,58.04
2018-09-30T01:10:08.780Z,58.10
2018-09-30T01:10:40.410Z,58.09
2018-09-30T01:11:11.991Z,58.01
2018-09-30T01:11:43.629Z,57.80
2018-09-30T01:12:15.205Z,57.77
2018-09-30T01:12:46.812Z,57.49
2018-09-30T01:13:18.424Z,57.82
2018-09-30T01:13:50.021Z,58.05
2018-09-30T01:14:21.616Z,58.09
2018-09-30T01:14:53.212Z,57.99
2018-09-30T01:15:24.790Z,57.84
2018-09-30T01:15:56.408Z,58.24
2018-09-30T01:16:28.015Z,58.21
2018-09-30T01:16:59.612Z,58.12
2018-09-30T01:17:31.209Z,58.00
2018-09-30T01:18:02.800Z,57.99
2018-09-30T01:18:34.399Z,58.02
2018-09-30T01:19:06.003Z,57.18
2018-09-30T01:19:37.611Z,57.83
2018-09-30T01:20:09.222Z,57.90
2018-09-30T01:20:40.848Z,57.85
2018-09-30T01:21:12.436Z,57.77
2018-09-30T01:21:44.039Z,57.83
2018-09-30T01:22:15.618Z,58.12
2018-09-30T01:22:47.226Z,57.83
2018-09-30T01:23:18.820Z,57.71
2018-09-30T01:23:50.416Z,58.16
2018-09-30T01:24:22.050Z,58.20
2018-09-30T01:24:53.644Z,58.66
2018-09-30T01:25:25.247Z,58.31
2018-09-30T01:25:56.855Z,58.54
2018-09-30T01:26:28.460Z,58.03
2018-09-30T01:27:00.067Z,58.38
2018-09-30T01:27:31.660Z,58.41
2018-09-30T01:28:03.266Z,58.31
2018-09-30T01:28:34.875Z,58.10
2018-09-30T01:29:06.454Z,58.14
2018-09-30T01:29:38.044Z,58.07
2018-09-30T01:30:09.639Z,58.28
2018-09-30T01:30:41.269Z,58.24
2018-09-30T01:31:12.874Z,58.25
2018-09-30T01:31:44.468Z,58.24
2018-09-30T01:32:16.072Z,58.24
2018-09-30T01:32:47.660Z,58.33
2018-09-30T01:33:19.275Z,58.26
2018-09-30T01:33:50.878Z,58.30
2018-09-30T01:34:22.477Z,58.22
2018-09-30T01:34:54.059Z,58.28
2018-09-30T01:35:25.638Z,58.30
2018-09-30T01:35:57.264Z,58.34
2018-09-30T01:36:28.855Z,58.22
2018-09-30T01:37:00.449Z,58.21
2018-09-30T01:37:32.044Z,58.26
2018-09-30T01:38:03.641Z,58.30
2018-09-30T01:38:35.222Z,58.37
2018-09-30T01:39:06.827Z,58.35
2018-09-30T01:39:38.421Z,58.32
2018-09-30T01:40:10.018Z,58.24
2018-09-30T01:40:41.629Z,58.13
2018-09-30T01:41:13.234Z,58.36
2018-09-30T01:41:44.831Z,58.35
2018-09-30T01:42:16.432Z,58.32
2018-09-30T01:42:48.011Z,58.33
2018-09-30T01:43:19.605Z,58.28
2018-09-30T01:43:51.210Z,58.35
2018-09-30T01:44:22.828Z,58.42
2018-09-30T01:44:54.428Z,58.34
2018-09-30T01:45:26.020Z,58.35
2018-09-30T01:45:57.640Z,58.31
2018-09-30T01:46:29.236Z,58.25
2018-09-30T01:47:00.825Z,58.33
2018-09-30T01:47:32.417Z,58.37
2018-09-30T01:48:04.012Z,58.32
2018-09-30T01:48:35.601Z,58.23
2018-09-30T01:49:07.203Z,58.29
2018-09-30T01:49:38.811Z,58.22
2018-09-30T01:50:10.415Z,58.25
2018-09-30T01:50:42.007Z,58.23
2018-09-30T01:51:13.642Z,58.18
2018-09-30T01:51:45.236Z,58.16
2018-09-30T01:52:16.829Z,58.18
2018-09-30T01:52:48.425Z,58.13
2018-09-30T01:53:20.020Z,58.21
2018-09-30T01:53:51.623Z,58.12
2018-09-30T01:54:23.226Z,58.22
2018-09-30T01:54:54.820Z,58.21
2018-09-30T01:55:26.429Z,58.12
2018-09-30T01:55:58.054Z,58.12
2018-09-30T01:56:29.658Z,57.94
2018-09-30T01:57:01.257Z,57.97
2018-09-30T01:57:32.844Z,57.84
2018-09-30T01:58:04.451Z,57.87
2018-09-30T01:58:36.060Z,57.94
2018-09-30T01:59:07.662Z,57.87
2018-09-30T01:59:39.266Z,58.00
2018-09-30T02:00:10.870Z,57.96
2018-09-30T02:00:42.460Z,57.67
2018-09-30T02:01:14.082Z,58.00
2018-09-30T02:01:45.676Z,58.14
2018-09-30T02:02:17.264Z,58.19
2018-09-30T02:02:48.856Z,58.13
2018-09-30T02:03:20.459Z,58.08
2018-09-30T02:03:52.062Z,58.10
2018-09-30T02:04:23.674Z,58.18
2018-09-30T02:04:55.286Z,58.12
2018-09-30T02:05:26.890Z,57.96
2018-09-30T02:05:58.522Z,57.97
2018-09-30T02:06:30.122Z,58.03
2018-09-30T02:07:01.720Z,58.25
2018-09-30T02:07:33.332Z,58.02
2018-09-30T02:08:04.924Z,57.62
2018-09-30T02:08:36.620Z,57.64
2018-09-30T02:09:08.204Z,57.72
2018-09-30T02:09:39.806Z,57.69
2018-09-30T02:10:11.410Z,57.83
2018-09-30T02:10:43.028Z,57.77
2018-09-30T02:11:14.644Z,57.79
2018-09-30T02:11:46.251Z,57.74
2018-09-30T02:12:17.855Z,57.86
2018-09-30T02:12:49.444Z,57.76
2018-09-30T02:13:21.036Z,57.84
2018-09-30T02:13:52.629Z,57.61
2018-09-30T02:14:24.224Z,57.68
2018-09-30T02:14:55.821Z,57.60
2018-09-30T02:15:27.413Z,57.58
2018-09-30T02:15:59.004Z,57.73
2018-09-30T02:16:30.593Z,57.79
2018-09-30T02:17:02.194Z,57.84
2018-09-30T02:17:33.802Z,57.45
2018-09-30T02:18:05.383Z,57.95
2018-09-30T02:18:36.987Z,57.67
2018-09-30T02:19:08.581Z,57.79
2018-09-30T02:19:40.176Z,57.90
2018-09-30T02:20:11.786Z,57.79
2018-09-30T02:20:43.516Z,57.90
2018-09-30T02:21:15.174Z,57.82
2018-09-30T02:21:46.765Z,57.92
2018-09-30T02:22:18.347Z,57.74
2018-09-30T02:22:49.922Z,57.71
2018-09-30T02:23:21.517Z,57.90
2018-09-30T02:23:53.113Z,57.76
2018-09-30T02:24:24.705Z,57.71
2018-09-30T02:24:56.301Z,57.75
2018-09-30T02:25:27.902Z,57.82
2018-09-30T02:25:59.510Z,57.79
2018-09-30T02:26:31.117Z,57.67
2018-09-30T02:27:02.716Z,57.69
2018-09-30T02:27:34.304Z,57.96
2018-09-30T02:28:05.911Z,58.05
2018-09-30T02:28:37.504Z,57.95
2018-09-30T02:29:09.110Z,57.89
2018-09-30T02:29:40.715Z,57.82
2018-09-30T02:30:12.309Z,57.87
2018-09-30T02:30:43.914Z,57.97
2018-09-30T02:31:15.512Z,57.70
2018-09-30T02:31:47.114Z,57.64
2018-09-30T02:32:18.724Z,57.86
2018-09-30T02:32:50.310Z,57.96
2018-09-30T02:33:21.920Z,57.81
2018-09-30T02:33:53.512Z,57.87
2018-09-30T02:34:25.122Z,58.05
2018-09-30T02:34:56.719Z,57.81
2018-09-30T02:35:28.323Z,58.00
2018-09-30T02:35:59.926Z,57.88
2018-09-30T02:36:31.552Z,58.08
2018-09-30T02:37:03.158Z,57.90
2018-09-30T02:37:34.759Z,57.70
2018-09-30T02:38:06.353Z,57.83
2018-09-30T02:38:37.950Z,57.99
2018-09-30T02:39:09.549Z,57.92
2018-09-30T02:39:41.178Z,57.78
2018-09-30T02:40:12.794Z,57.90
2018-09-30T02:40:44.375Z,57.93
2018-09-30T02:41:15.964Z,57.97
2018-09-30T02:41:47.580Z,58.11
2018-09-30T02:42:19.182Z,57.92
2018-09-30T02:42:50.786Z,57.68
2018-09-30T02:43:22.376Z,58.08
2018-09-30T02:43:53.964Z,57.94
2018-09-30T02:44:25.558Z,57.80
2018-09-30T02:44:57.159Z,57.95
2018-09-30T02:45:28.752Z,57.99
2018-09-30T02:46:00.348Z,57.67
2018-09-30T02:46:31.964Z,57.70
2018-09-30T02:47:03.559Z,57.73
2018-09-30T02:47:35.148Z,57.71
2018-09-30T02:48:06.750Z,57.61
2018-09-30T02:48:38.327Z,57.55
2018-09-30T02:49:09.935Z,57.93
2018-09-30T02:49:41.528Z,57.73
2018-09-30T02:50:13.173Z,57.69
2018-09-30T02:50:44.762Z,57.80
2018-09-30T02:51:16.364Z,57.94
2018-09-30T02:51:47.981Z,57.73
2018-09-30T02:52:19.589Z,57.81
2018-09-30T02:52:51.173Z,57.75
2018-09-30T02:53:22.769Z,57.88
2018-09-30T02:53:54.375Z,57.95
2018-09-30T02:54:25.968Z,57.88
2018-09-30T02:54:57.560Z,57.95
2018-09-30T02:55:29.153Z,57.92
2018-09-30T02:56:00.744Z,57.94
2018-09-30T02:56:32.398Z,58.00
2018-09-30T02:57:03.996Z,58.00
2018-09-30T02:57:35.598Z,58.09
2018-09-30T02:58:07.204Z,57.99
2018-09-30T02:58:38.819Z,57.88
2018-09-30T02:59:10.412Z,58.22
2018-09-30T02:59:42.008Z,58.09
2018-09-30T03:00:13.600Z,58.10
2018-09-30T03:00:45.179Z,58.88
2018-09-30T03:01:16.754Z,58.64
2018-09-30T03:01:48.371Z,58.40
2018-09-30T03:02:19.975Z,58.56
2018-09-30T03:02:51.579Z,58.56
2018-09-30T03:03:23.176Z,58.90
2018-09-30T03:03:54.772Z,58.67
2018-09-30T03:04:26.364Z,58.58
2018-09-30T03:04:57.939Z,58.58
2018-09-30T03:05:29.533Z,58.59
2018-09-30T03:06:01.123Z,58.54
2018-09-30T03:06:32.750Z,58.54
2018-09-30T03:07:04.372Z,58.15
2018-09-30T03:07:54.838Z,58.56
2018-09-30T03:09:24.295Z,58.55
2018-09-30T03:09:55.896Z,58.44
2018-09-30T03:10:27.488Z,58.41
2018-09-30T03:10:59.077Z,58.47
2018-09-30T03:11:30.669Z,58.52
2018-09-30T03:12:02.285Z,58.51
2018-09-30T03:12:33.938Z,58.56
2018-09-30T03:13:05.507Z,58.41
2018-09-30T03:13:37.114Z,58.49
2018-09-30T03:14:08.718Z,58.57
2018-09-30T03:14:40.299Z,58.68
2018-09-30T03:15:11.892Z,58.77
2018-09-30T03:15:43.484Z,58.51
2018-09-30T03:16:15.092Z,58.57
2018-09-30T03:16:46.708Z,58.67
2018-09-30T03:17:18.290Z,58.33
2018-09-30T03:17:49.895Z,58.45
2018-09-30T03:18:21.492Z,58.46
2018-09-30T03:18:53.103Z,58.48
2018-09-30T03:19:24.706Z,58.35
2018-09-30T03:19:56.291Z,58.19
2018-09-30T03:20:27.892Z,58.21
2018-09-30T03:20:59.481Z,58.25
2018-09-30T03:21:31.090Z,58.14
2018-09-30T03:22:02.725Z,58.17
2018-09-30T03:22:34.332Z,58.07
2018-09-30T03:23:05.911Z,57.98
2018-09-30T03:23:37.500Z,57.94
2018-09-30T03:24:09.086Z,58.06
2018-09-30T03:24:40.691Z,58.28
2018-09-30T03:25:12.284Z,58.22
2018-09-30T03:25:43.895Z,58.17
2018-09-30T03:26:15.484Z,58.18
2018-09-30T03:26:47.124Z,58.28
2018-09-30T03:27:18.716Z,58.32
2018-09-30T03:27:50.313Z,58.16
2018-09-30T03:28:21.900Z,57.95
2018-09-30T03:28:53.502Z,58.07
2018-09-30T03:29:25.105Z,58.28
2018-09-30T03:29:56.710Z,57.99
2018-09-30T03:30:28.308Z,58.09
2018-09-30T03:30:59.904Z,58.07
2018-09-30T03:31:31.486Z,57.87
2018-09-30T03:32:03.104Z,58.05
2018-09-30T03:32:34.700Z,57.75
2018-09-30T03:33:06.303Z,57.91
2018-09-30T03:33:37.916Z,57.99
2018-09-30T03:34:09.517Z,57.96
2018-09-30T03:34:41.123Z,57.90
2018-09-30T03:35:12.727Z,57.86
2018-09-30T03:35:44.320Z,57.93
2018-09-30T03:36:15.912Z,57.94
2018-09-30T03:36:47.509Z,57.82
2018-09-30T03:37:19.119Z,58.25
2018-09-30T03:37:50.694Z,58.37
2018-09-30T03:38:22.284Z,58.32
2018-09-30T03:38:53.885Z,58.35
2018-09-30T03:39:25.506Z,58.36
2018-09-30T03:39:57.117Z,58.03
2018-09-30T03:40:28.717Z,58.18
2018-09-30T03:41:00.308Z,57.82
2018-09-30T03:41:31.900Z,57.65
2018-09-30T03:42:03.531Z,57.69
2018-09-30T03:42:35.135Z,57.83
2018-09-30T03:43:06.724Z,57.99
2018-09-30T03:43:38.306Z,57.84
2018-09-30T03:44:09.906Z,57.92
2018-09-30T03:44:41.510Z,57.70
2018-09-30T03:45:13.115Z,57.75
2018-09-30T03:45:44.726Z,57.71
2018-09-30T03:46:16.316Z,57.83
2018-09-30T03:46:47.908Z,57.91
2018-09-30T03:47:19.538Z,57.90
2018-09-30T03:47:51.137Z,57.71
2018-09-30T03:48:22.733Z,57.63
2018-09-30T03:48:54.328Z,57.78
2018-09-30T03:49:25.912Z,57.71
2018-09-30T03:49:57.519Z,57.91
2018-09-30T03:50:29.113Z,57.80
2018-09-30T03:51:00.718Z,57.67
2018-09-30T03:51:32.308Z,57.87
2018-09-30T03:52:03.892Z,57.93
2018-09-30T03:52:35.494Z,57.86
2018-09-30T03:53:07.084Z,57.73
2018-09-30T03:53:38.685Z,57.75
2018-09-30T03:54:10.262Z,57.81
2018-09-30T03:54:41.865Z,57.96
2018-09-30T03:55:13.460Z,57.93
2018-09-30T03:55:45.066Z,57.57
2018-09-30T03:56:16.657Z,57.73
2018-09-30T03:56:48.328Z,57.99
2018-09-30T03:57:19.906Z,57.81
2018-09-30T03:57:51.507Z,58.11
2018-09-30T03:58:23.120Z,58.22
2018-09-30T03:58:54.734Z,58.22
2018-09-30T03:59:26.330Z,58.42
2018-09-30T03:59:57.947Z,58.00
2018-09-30T04:00:29.526Z,57.98
2018-09-30T04:01:01.130Z,58.29
2018-09-30T04:01:32.725Z,58.64
2018-09-30T04:02:04.331Z,58.37
2018-09-30T04:02:35.957Z,58.51
2018-09-30T04:03:07.545Z,58.67
2018-09-30T04:03:39.146Z,58.77
2018-09-30T04:04:10.750Z,58.55
2018-09-30T04:04:42.363Z,58.55
2018-09-30T04:05:13.970Z,58.53
2018-09-30T04:05:45.559Z,58.50
2018-09-30T04:06:17.158Z,58.75
2018-09-30T04:06:48.738Z,58.44
2018-09-30T04:07:20.342Z,58.63
2018-09-30T04:07:51.920Z,58.75
2018-09-30T04:08:23.526Z,58.42
2018-09-30T04:08:55.131Z,58.66
2018-09-30T04:09:26.744Z,58.70
2018-09-30T04:09:58.382Z,58.98
2018-09-30T04:10:29.944Z,58.76
2018-09-30T04:11:01.540Z,58.60
2018-09-30T04:11:33.143Z,58.89
2018-09-30T04:12:04.734Z,58.50
2018-09-30T04:12:36.367Z,58.56
2018-09-30T04:13:07.965Z,58.89
2018-09-30T04:13:39.542Z,58.52
2018-09-30T04:14:11.121Z,58.40
2018-09-30T04:14:42.712Z,58.30
2018-09-30T04:15:14.305Z,58.43
2018-09-30T04:15:45.906Z,58.33
2018-09-30T04:16:17.487Z,58.30
2018-09-30T04:16:49.114Z,58.43
2018-09-30T04:17:20.780Z,58.46
2018-09-30T04:17:52.386Z,58.41
2018-09-30T04:18:23.980Z,58.25
2018-09-30T04:18:55.560Z,58.22
2018-09-30T04:19:27.162Z,58.33
2018-09-30T04:19:58.765Z,58.31
2018-09-30T04:20:30.352Z,58.41
2018-09-30T04:21:01.960Z,58.52
2018-09-30T04:21:33.565Z,58.43
2018-09-30T04:22:05.156Z,58.67
2018-09-30T04:22:36.778Z,58.91
2018-09-30T04:23:08.381Z,59.18
2018-09-30T04:23:39.977Z,59.01
2018-09-30T04:24:11.589Z,59.04
2018-09-30T04:24:43.193Z,59.04
2018-09-30T04:25:14.794Z,59.05
2018-09-30T04:25:46.398Z,59.06
2018-09-30T04:26:17.974Z,59.01
2018-09-30T04:26:49.583Z,59.00
2018-09-30T04:27:21.214Z,59.17
2018-09-30T04:27:52.822Z,59.17
2018-09-30T04:28:24.426Z,59.33
2018-09-30T04:28:56.020Z,59.47
2018-09-30T04:29:27.623Z,59.65
2018-09-30T04:29:59.226Z,59.55
2018-09-30T04:30:30.835Z,59.31
2018-09-30T04:31:02.438Z,59.53
2018-09-30T04:31:34.026Z,59.57
2018-09-30T04:32:05.607Z,59.48
2018-09-30T04:32:37.239Z,59.45
2018-09-30T04:33:08.888Z,59.97
2018-09-30T04:33:40.461Z,59.69
2018-09-30T04:34:12.061Z,59.63
2018-09-30T04:34:43.666Z,59.60
2018-09-30T04:35:15.255Z,59.62
2018-09-30T04:35:46.859Z,59.82
2018-09-30T04:36:18.456Z,59.82
2018-09-30T04:36:50.079Z,59.94
2018-09-30T04:37:21.714Z,59.98
2018-09-30T04:37:53.322Z,59.93
2018-09-30T04:38:24.912Z,60.09
2018-09-30T04:38:56.501Z,60.13
2018-09-30T04:39:28.092Z,60.09
2018-09-30T04:39:59.694Z,60.10
2018-09-30T04:40:31.284Z,60.23
2018-09-30T04:41:02.876Z,60.11
2018-09-30T04:41:34.455Z,60.05
2018-09-30T04:42:06.032Z,60.05
2018-09-30T04:42:37.665Z,59.98
2018-09-30T04:43:09.270Z,60.09
2018-09-30T04:43:40.865Z,59.68
2018-09-30T04:44:12.460Z,59.76
2018-09-30T04:44:44.063Z,59.91
2018-09-30T04:45:15.656Z,59.68
2018-09-30T04:45:47.309Z,59.94
2018-09-30T04:46:18.898Z,59.78
2018-09-30T04:46:50.502Z,59.81
2018-09-30T04:47:22.099Z,59.83
2018-09-30T04:47:53.706Z,59.61
2018-09-30T04:48:25.311Z,59.73
2018-09-30T04:48:56.900Z,59.67
2018-09-30T04:49:28.502Z,59.66
2018-09-30T04:50:00.140Z,59.67
2018-09-30T04:50:31.728Z,59.53
2018-09-30T04:51:03.320Z,59.79
2018-09-30T04:51:34.922Z,59.51
2018-09-30T04:52:06.516Z,59.48
2018-09-30T04:52:38.095Z,59.47
2018-09-30T04:53:09.674Z,59.74
2018-09-30T04:53:41.265Z,59.58
2018-09-30T04:54:12.861Z,59.73
2018-09-30T04:54:44.448Z,59.29
2018-09-30T04:55:16.053Z,59.70
2018-09-30T04:55:47.648Z,59.70
2018-09-30T04:56:19.251Z,59.62
2018-09-30T04:56:50.858Z,59.42
2018-09-30T04:57:22.463Z,59.78
2018-09-30T04:57:54.094Z,59.62
2018-09-30T04:58:25.688Z,59.23
2018-09-30T04:58:57.284Z,59.22
2018-09-30T04:59:28.866Z,59.42
2018-09-30T05:00:00.461Z,59.19
2018-09-30T05:00:32.065Z,59.26
2018-09-30T05:01:03.658Z,58.97
2018-09-30T05:01:35.252Z,59.28
2018-09-30T05:02:06.845Z,59.16
2018-09-30T05:02:38.475Z,59.12
2018-09-30T05:03:10.111Z,59.32
2018-09-30T05:03:41.731Z,59.16
2018-09-30T05:04:13.344Z,59.07
2018-09-30T05:04:44.941Z,59.05
2018-09-30T05:05:16.546Z,58.96
2018-09-30T05:05:48.154Z,59.08
2018-09-30T05:06:19.755Z,59.11
2018-09-30T05:06:51.358Z,58.64
2018-09-30T05:07:22.962Z,58.75
2018-09-30T05:07:54.594Z,58.77
2018-09-30T05:08:26.174Z,58.76
2018-09-30T05:08:57.777Z,58.91
2018-09-30T05:09:29.373Z,59.01
2018-09-30T05:10:00.954Z,58.92
2018-09-30T05:10:32.558Z,58.78
2018-09-30T05:11:04.162Z,58.79
2018-09-30T05:11:35.756Z,58.58
2018-09-30T05:12:07.358Z,58.59
2018-09-30T05:12:38.953Z,58.55
2018-09-30T05:13:10.558Z,58.78
2018-09-30T05:13:42.164Z,58.54
2018-09-30T05:14:13.753Z,58.83
2018-09-30T05:14:45.344Z,59.17
2018-09-30T05:15:16.940Z,59.33
2018-09-30T05:15:48.583Z,59.30
2018-09-30T05:16:20.184Z,59.11
2018-09-30T05:16:51.802Z,59.38
2018-09-30T05:17:23.406Z,59.24
2018-09-30T05:17:55.024Z,59.05
2018-09-30T05:18:26.613Z,59.69
2018-09-30T05:18:58.190Z,59.44
2018-09-30T05:19:29.784Z,59.45
2018-09-30T05:20:01.367Z,59.45
2018-09-30T05:20:32.970Z,59.35
2018-09-30T05:21:04.559Z,59.52
2018-09-30T05:21:36.163Z,58.93
2018-09-30T05:22:07.766Z,59.10
2018-09-30T05:22:39.356Z,59.09
2018-09-30T05:23:10.976Z,59.16
2018-09-30T05:23:42.569Z,59.28
2018-09-30T05:24:14.173Z,59.51
2018-09-30T05:24:45.783Z,59.45
2018-09-30T05:25:17.388Z,58.89
2018-09-30T05:25:49.051Z,58.92
2018-09-30T05:26:20.598Z,58.54
2018-09-30T05:26:52.192Z,55.78
2018-09-30T05:27:23.785Z,58.82
2018-09-30T05:27:55.400Z,58.06
2018-09-30T05:28:27.006Z,57.58
2018-09-30T05:28:58.612Z,57.91
2018-09-30T05:29:30.190Z,58.04
2018-09-30T05:30:01.791Z,58.49
2018-09-30T05:30:33.398Z,58.20
2018-09-30T05:31:05.031Z,58.45
2018-09-30T05:31:36.628Z,58.38
2018-09-30T05:32:08.235Z,58.46
2018-09-30T05:32:39.829Z,58.07
2018-09-30T05:33:11.453Z,57.44
2018-09-30T05:33:43.030Z,56.59
2018-09-30T05:34:14.610Z,56.48
2018-09-30T05:34:46.219Z,56.35
2018-09-30T05:35:17.812Z,56.36
2018-09-30T05:35:49.404Z,56.85
2018-09-30T05:36:21.007Z,56.66
2018-09-30T05:36:52.600Z,56.95
2018-09-30T05:37:24.203Z,57.00
2018-09-30T05:37:55.834Z,57.07
2018-09-30T05:38:27.428Z,56.62
2018-09-30T05:38:59.021Z,57.45
2018-09-30T05:39:30.636Z,57.35
2018-09-30T05:40:02.251Z,57.67
2018-09-30T05:40:33.860Z,57.72
2018-09-30T05:41:05.461Z,57.82
2018-09-30T05:41:37.065Z,57.60
2018-09-30T05:42:08.649Z,58.01
2018-09-30T05:42:40.251Z,57.86
2018-09-30T05:43:11.880Z,57.89
2018-09-30T05:43:43.468Z,57.81
2018-09-30T05:44:15.070Z,58.10
2018-09-30T05:44:46.674Z,58.05
2018-09-30T05:45:18.264Z,57.78
2018-09-30T05:45:49.842Z,58.35
2018-09-30T05:46:21.432Z,58.33
2018-09-30T05:46:53.035Z,58.31
2018-09-30T05:47:24.646Z,58.34
2018-09-30T05:47:56.291Z,58.42
2018-09-30T05:48:27.894Z,58.47
2018-09-30T05:48:59.520Z,58.48
2018-09-30T05:49:31.135Z,58.58
2018-09-30T05:50:02.710Z,58.66
2018-09-30T05:50:34.318Z,58.60
2018-09-30T05:51:05.909Z,59.08
2018-09-30T05:51:37.496Z,59.05
2018-09-30T05:52:09.101Z,58.98
2018-09-30T05:52:40.697Z,58.91
2018-09-30T05:53:12.328Z,58.94
2018-09-30T05:53:43.934Z,59.00
2018-09-30T05:54:15.543Z,58.93
2018-09-30T05:54:47.163Z,59.10
2018-09-30T05:55:18.786Z,59.11
2018-09-30T05:55:50.391Z,59.10
2018-09-30T05:56:21.994Z,59.07
2018-09-30T05:56:53.598Z,59.27
2018-09-30T05:57:25.232Z,59.17
2018-09-30T05:57:56.864Z,59.36
2018-09-30T05:58:28.460Z,59.38
2018-09-30T05:59:00.067Z,59.65
2018-09-30T05:59:31.670Z,59.46
2018-09-30T06:00:03.282Z,59.40
2018-09-30T06:00:34.902Z,59.36
2018-09-30T06:01:06.492Z,59.40
2018-09-30T06:01:38.089Z,59.40
2018-09-30T06:02:09.703Z,59.46
2018-09-30T06:02:41.314Z,59.43
2018-09-30T06:03:12.943Z,59.42
2018-09-30T06:03:44.522Z,59.48
2018-09-30T06:04:16.106Z,59.59
2018-09-30T06:04:47.711Z,59.54
2018-09-30T06:05:19.303Z,59.58
2018-09-30T06:05:50.902Z,59.67
2018-09-30T06:06:22.510Z,59.81
2018-09-30T06:06:54.114Z,59.83
2018-09-30T06:07:25.708Z,59.83
2018-09-30T06:07:57.300Z,59.93
2018-09-30T06:08:28.924Z,59.96
2018-09-30T06:09:00.610Z,59.82
2018-09-30T06:09:32.235Z,59.87
2018-09-30T06:10:03.796Z,59.92
2018-09-30T06:10:35.574Z,60.21
2018-09-30T06:11:07.164Z,60.26
2018-09-30T06:11:38.742Z,60.23
2018-09-30T06:12:10.350Z,60.21
2018-09-30T06:12:41.932Z,60.19
2018-09-30T06:13:13.539Z,60.26
2018-09-30T06:13:45.192Z,60.12
2018-09-30T06:14:16.937Z,59.76
2018-09-30T06:14:48.356Z,60.22
2018-09-30T06:15:19.958Z,60.24
2018-09-30T06:15:51.657Z,60.37
2018-09-30T06:16:23.182Z,60.27
2018-09-30T06:16:54.772Z,60.42
2018-09-30T06:17:26.375Z,60.62
2018-09-30T06:17:57.970Z,60.51
2018-09-30T06:18:29.607Z,60.45
2018-09-30T06:19:01.205Z,60.64
2018-09-30T06:19:32.809Z,60.56
2018-09-30T06:20:04.423Z,60.46
2018-09-30T06:20:36.020Z,60.37
2018-09-30T06:21:07.623Z,60.44
2018-09-30T06:21:39.216Z,60.31
2018-09-30T06:22:10.795Z,60.53
2018-09-30T06:22:42.388Z,60.58
2018-09-30T06:23:14.006Z,60.42
2018-09-30T06:23:45.597Z,60.44
2018-09-30T06:24:17.243Z,60.36
2018-09-30T06:24:48.839Z,60.40
2018-09-30T06:25:20.451Z,60.41
2018-09-30T06:25:52.053Z,60.42
2018-09-30T06:26:23.648Z,60.40
2018-09-30T06:26:55.243Z,60.44
2018-09-30T06:27:26.850Z,60.73
2018-09-30T06:27:58.444Z,60.48
2018-09-30T06:28:30.102Z,60.27
2018-09-30T06:29:01.696Z,60.26
2018-09-30T06:29:33.312Z,60.12
2018-09-30T06:30:04.910Z,59.92
2018-09-30T06:30:36.490Z,59.91
2018-09-30T06:31:08.091Z,59.80
2018-09-30T06:31:39.722Z,59.91
2018-09-30T06:32:11.371Z,59.93
2018-09-30T06:32:42.940Z,59.70
2018-09-30T06:33:14.533Z,60.06
2018-09-30T06:33:46.167Z,59.67
2018-09-30T06:34:17.760Z,59.52
2018-09-30T06:34:49.356Z,59.50
2018-09-30T06:35:20.948Z,59.30
2018-09-30T06:35:52.540Z,59.54
2018-09-30T06:36:24.146Z,59.98
2018-09-30T06:36:55.750Z,59.67
2018-09-30T06:37:27.340Z,59.88
2018-09-30T06:37:58.926Z,59.49
2018-09-30T06:38:30.785Z,59.40
2018-09-30T06:39:02.367Z,59.54
2018-09-30T06:39:33.970Z,59.65
2018-09-30T06:40:05.551Z,59.44
2018-09-30T06:40:37.155Z,59.59
2018-09-30T06:41:08.773Z,59.54
2018-09-30T06:41:40.377Z,59.31
2018-09-30T06:42:11.994Z,59.40
2018-09-30T06:42:43.602Z,59.08
2018-09-30T06:43:15.312Z,59.27
2018-09-30T06:43:46.928Z,59.09
2018-09-30T06:44:18.542Z,59.50
2018-09-30T06:44:50.152Z,59.18
2018-09-30T06:45:21.776Z,59.32
2018-09-30T06:45:53.409Z,59.22
2018-09-30T06:46:24.990Z,59.22
2018-09-30T06:46:56.590Z,59.21
2018-09-30T06:47:28.180Z,59.20
2018-09-30T06:47:59.782Z,59.25
2018-09-30T06:48:31.415Z,59.07
2018-09-30T06:49:03.045Z,59.08